Sea Discovery — 5BGR3 — position and weather

sailwx.info

Track history (hours):
 
Tides and Currents Weather Stations Pressure Air Temp Water Temp Dewpoint Dewpoint Depression Visibility Wind Speed Wind Dir Waves Ship Positions

Sea Discovery

Last reported at 2018-Feb-19 09:53 UTC. Time now 2018-Feb-19 15:33 UTC.
Position N 49°54' W 003°11'.

Length 110 m; draft 8.1 m.

Type: Cargo ship. MMSI: 209185000.

Date/timePositionNaut miles runAvg speedWind from/ knotsBaromVisibWave heightAir tempDewpointWater temp
2018-Feb-19 09:53N 49°54' W 003°11'11412.1
2018-Feb-19 00:25N 50°28' W 000°21'410.4
2018-Feb-19 00:00N 50°29' W 000°15'5 9.9
2018-Feb-18 23:30N 50°30' W 000°07'5 9.4
2018-Feb-18 23:01N 50°31' E 000°00'5 9.2
2018-Feb-18 22:30N 50°33' E 000°07'5 9.4
2018-Feb-18 22:00N 50°34' E 000°14'6 9.7
2018-Feb-18 21:25N 50°36' E 000°23'510.6
2018-Feb-18 20:59N 50°37' E 000°30'611.4
2018-Feb-18 20:30N 50°39' E 000°38'612.4
2018-Feb-18 20:01N 50°43' E 000°45'2113.1
2018-Feb-18 18:24N 50°56' E 001°12'612.7
2018-Feb-18 17:57N 50°60' E 001°19'512.2
2018-Feb-18 17:30N 51°03' E 001°25'611.4
2018-Feb-18 17:01N 51°07' E 001°32'510.1
2018-Feb-18 16:31N 51°10' E 001°38'5 9.6
2018-Feb-18 16:00N 51°13' E 001°44'5 9.4
2018-Feb-18 15:30N 51°17' E 001°48'5 9.3
2018-Feb-18 15:01N 51°21' E 001°51'5 9.5
2018-Feb-18 14:30N 51°26' E 001°55'26011.4
2018-Feb-17 15:43N 55°01' E 005°58'211.6
2018-Feb-17 15:30N 55°03' E 006°01'611.5
2018-Feb-17 15:00N 55°08' E 006°06'611.4
2018-Feb-17 14:29N 55°13' E 006°11'21410.5
2018-Feb-16 18:01N 57°48' E 010°39'1 9.3
2018-Feb-16 17:58N 57°48' E 010°39'4 9.0
2018-Feb-16 17:31N 57°47' E 010°47'611.0
2018-Feb-16 17:00N 57°41' E 010°45'4 4.6
2018-Feb-16 16:13N 57°40' E 010°38'0 0.1
2018-Feb-16 15:52N 57°40' E 010°38'0 0.0
2018-Feb-16 10:07N 57°40' E 010°38'0 0.0
2018-Feb-16 09:49N 57°40' E 010°38'0 0.0
2018-Feb-16 04:19N 57°40' E 010°38'0 0.0
2018-Feb-16 01:16N 57°40' E 010°38'0 1.1
2018-Feb-16 01:00N 57°40' E 010°38'1 2.6
2018-Feb-16 00:29N 57°40' E 010°40'3 7.3
2018-Feb-16 00:00N 57°39' E 010°47'4 7.3
2018-Feb-15 23:30N 57°37' E 010°52'510.4
2018-Feb-15 23:00N 57°34' E 010°60'611.3
2018-Feb-15 22:30N 57°32' E 011°10'611.0
2018-Feb-15 22:00N 57°30' E 011°19'510.0
2018-Feb-15 21:30N 57°27' E 011°27'611.6
2018-Feb-15 21:00N 57°22' E 011°30'611.6
2018-Feb-15 20:30N 57°16' E 011°34'12511.0
2018-Feb-15 09:09N 55°12' E 011°06'212.2
2018-Feb-15 09:00N 55°10' E 011°04'713.8
2018-Feb-15 08:30N 55°04' E 011°02'612.4
2018-Feb-15 08:00N 54°58' E 010°59'612.6
2018-Feb-15 07:30N 54°52' E 010°54'612.9
2018-Feb-15 07:00N 54°46' E 010°53'510.7
2018-Feb-15 06:30N 54°41' E 010°57'612.4
2018-Feb-15 06:00N 54°38' E 011°06'612.4
2018-Feb-15 05:30N 54°35' E 011°15'612.2
2018-Feb-15 05:00N 54°32' E 011°25'611.7
2018-Feb-15 04:30N 54°30' E 011°34'611.4
2018-Feb-15 03:57N 54°28' E 011°44'8410.9
2018-Feb-14 20:14N 55°03' E 013°57'1411.2
2018-Feb-14 19:00N 55°11' E 014°16'712.0
2018-Feb-14 18:27N 55°17' E 014°23'3211.8
2018-Feb-14 15:42N 55°37' E 015°07'211.9
2018-Feb-14 15:30N 55°38' E 015°11'611.9
2018-Feb-14 15:00N 55°41' E 015°20'612.0
2018-Feb-14 14:30N 55°44' E 015°29'612.0
2018-Feb-14 14:00N 55°47' E 015°39'612.0
2018-Feb-14 13:30N 55°50' E 015°48'612.1
2018-Feb-14 13:00N 55°53' E 015°57'612.0
2018-Feb-14 12:30N 55°56' E 016°06'612.0
2018-Feb-14 12:00N 55°59' E 016°16'611.9
2018-Feb-14 11:30N 56°02' E 016°25'611.9
2018-Feb-14 11:00N 56°06' E 016°33'25110.9
2018-Feb-13 11:55N 60°01' E 019°16'511.9
2018-Feb-13 11:29N 60°05' E 019°09'611.8
2018-Feb-13 11:00N 60°10' E 019°02'611.3
2018-Feb-13 10:30N 60°15' E 018°60'  
Track history (hours):
 
Tides and Currents Weather Stations Pressure Air Temp Water Temp Dewpoint Dewpoint Depression Visibility Wind Speed Wind Dir Waves Ship Positions

Sea Discovery

Last reported at 2018-Feb-19 09:53 UTC. Time now 2018-Feb-19 15:33 UTC.
Position N 49°54' W 003°11'.

Length 110 m; draft 8.1 m.

Type: Cargo ship. MMSI: 209185000.

Date/timePositionNaut miles runAvg speedWind from/ knotsBaromVisibWave heightAir tempDewpointWater temp
2018-Feb-19 09:53N 49°54' W 003°11'11412.1
2018-Feb-19 00:25N 50°28' W 000°21'410.4
2018-Feb-19 00:00N 50°29' W 000°15'5 9.9
2018-Feb-18 23:30N 50°30' W 000°07'5 9.4
2018-Feb-18 23:01N 50°31' E 000°00'5 9.2
2018-Feb-18 22:30N 50°33' E 000°07'5 9.4
2018-Feb-18 22:00N 50°34' E 000°14'6 9.7
2018-Feb-18 21:25N 50°36' E 000°23'510.6
2018-Feb-18 20:59N 50°37' E 000°30'611.4
2018-Feb-18 20:30N 50°39' E 000°38'612.4
2018-Feb-18 20:01N 50°43' E 000°45'2113.1
2018-Feb-18 18:24N 50°56' E 001°12'612.7
2018-Feb-18 17:57N 50°60' E 001°19'512.2
2018-Feb-18 17:30N 51°03' E 001°25'611.4
2018-Feb-18 17:01N 51°07' E 001°32'510.1
2018-Feb-18 16:31N 51°10' E 001°38'5 9.6
2018-Feb-18 16:00N 51°13' E 001°44'5 9.4
2018-Feb-18 15:30N 51°17' E 001°48'5 9.3
2018-Feb-18 15:01N 51°21' E 001°51'5 9.5
2018-Feb-18 14:30N 51°26' E 001°55'26011.4
2018-Feb-17 15:43N 55°01' E 005°58'211.6
2018-Feb-17 15:30N 55°03' E 006°01'611.5
2018-Feb-17 15:00N 55°08' E 006°06'611.4
2018-Feb-17 14:29N 55°13' E 006°11'21410.5
2018-Feb-16 18:01N 57°48' E 010°39'1 9.3
2018-Feb-16 17:58N 57°48' E 010°39'4 9.0
2018-Feb-16 17:31N 57°47' E 010°47'611.0
2018-Feb-16 17:00N 57°41' E 010°45'4 4.6
2018-Feb-16 16:13N 57°40' E 010°38'0 0.1
2018-Feb-16 15:52N 57°40' E 010°38'0 0.0
2018-Feb-16 10:07N 57°40' E 010°38'0 0.0
2018-Feb-16 09:49N 57°40' E 010°38'0 0.0
2018-Feb-16 04:19N 57°40' E 010°38'0 0.0
2018-Feb-16 01:16N 57°40' E 010°38'0 1.1
2018-Feb-16 01:00N 57°40' E 010°38'1 2.6
2018-Feb-16 00:29N 57°40' E 010°40'3 7.3
2018-Feb-16 00:00N 57°39' E 010°47'4 7.3
2018-Feb-15 23:30N 57°37' E 010°52'510.4
2018-Feb-15 23:00N 57°34' E 010°60'611.3
2018-Feb-15 22:30N 57°32' E 011°10'611.0
2018-Feb-15 22:00N 57°30' E 011°19'510.0
2018-Feb-15 21:30N 57°27' E 011°27'611.6
2018-Feb-15 21:00N 57°22' E 011°30'611.6
2018-Feb-15 20:30N 57°16' E 011°34'12511.0
2018-Feb-15 09:09N 55°12' E 011°06'212.2
2018-Feb-15 09:00N 55°10' E 011°04'713.8
2018-Feb-15 08:30N 55°04' E 011°02'612.4
2018-Feb-15 08:00N 54°58' E 010°59'612.6
2018-Feb-15 07:30N 54°52' E 010°54'612.9
2018-Feb-15 07:00N 54°46' E 010°53'510.7
2018-Feb-15 06:30N 54°41' E 010°57'612.4
2018-Feb-15 06:00N 54°38' E 011°06'612.4
2018-Feb-15 05:30N 54°35' E 011°15'612.2
2018-Feb-15 05:00N 54°32' E 011°25'611.7
2018-Feb-15 04:30N 54°30' E 011°34'611.4
2018-Feb-15 03:57N 54°28' E 011°44'8410.9
2018-Feb-14 20:14N 55°03' E 013°57'1411.2
2018-Feb-14 19:00N 55°11' E 014°16'712.0
2018-Feb-14 18:27N 55°17' E 014°23'3211.8
2018-Feb-14 15:42N 55°37' E 015°07'211.9
2018-Feb-14 15:30N 55°38' E 015°11'611.9
2018-Feb-14 15:00N 55°41' E 015°20'612.0
2018-Feb-14 14:30N 55°44' E 015°29'612.0
2018-Feb-14 14:00N 55°47' E 015°39'612.0
2018-Feb-14 13:30N 55°50' E 015°48'612.1
2018-Feb-14 13:00N 55°53' E 015°57'612.0
2018-Feb-14 12:30N 55°56' E 016°06'612.0
2018-Feb-14 12:00N 55°59' E 016°16'611.9
2018-Feb-14 11:30N 56°02' E 016°25'611.9
2018-Feb-14 11:00N 56°06' E 016°33'25110.9
2018-Feb-13 11:55N 60°01' E 019°16'511.9
2018-Feb-13 11:29N 60°05' E 019°09'611.8
2018-Feb-13 11:00N 60°10' E 019°02'611.3
2018-Feb-13 10:30N 60°15' E 018°60'  

Dump ship's entire track history